createdAt,value
2022-10-19T00:00:42.992Z,102191.25
2022-10-19T00:05:52.425Z,102180.16
2022-10-19T00:10:56.412Z,102172.16
2022-10-19T00:16:00.037Z,102172.47
2022-10-19T00:21:08.657Z,102171.94
2022-10-19T00:26:20.531Z,102175.84
2022-10-19T00:31:24.135Z,102163.41
2022-10-19T00:36:37.189Z,102169.88
2022-10-19T00:41:47.144Z,102160.19
2022-10-19T00:47:01.631Z,102158.34
2022-10-19T00:52:17.434Z,102158.66
2022-10-19T00:57:23.312Z,102143.44
2022-10-19T01:05:26.525Z,102143.50
2022-10-19T01:10:58.054Z,102135.75
2022-10-19T01:16:29.139Z,102137.97
2022-10-19T01:21:48.386Z,102132.22
2022-10-19T01:27:22.541Z,102136.94
2022-10-19T01:33:05.297Z,102122.56
2022-10-19T01:38:34.938Z,102105.41
2022-10-19T01:44:12.630Z,102097.69
2022-10-19T01:49:54.582Z,102087.84
2022-10-19T01:55:05.952Z,102083.41
2022-10-19T02:00:26.524Z,102084.56
2022-10-19T02:05:48.168Z,102075.72
2022-10-19T02:10:52.362Z,102081.88
2022-10-19T02:16:06.657Z,102070.78
2022-10-19T02:21:15.894Z,102065.84
2022-10-19T02:26:21.999Z,102063.38
2022-10-19T02:31:30.325Z,102064.81
2022-10-19T02:36:34.179Z,102055.16
2022-10-19T02:42:08.814Z,102035.25
2022-10-19T02:47:40.480Z,102028.91
2022-10-19T02:52:48.217Z,102040.59
2022-10-19T02:57:57.539Z,102036.69
2022-10-19T03:03:11.240Z,102025.31
2022-10-19T03:08:14.700Z,102030.53
2022-10-19T03:13:22.197Z,102023.34
2022-10-19T03:18:26.115Z,102006.22
2022-10-19T03:23:32.317Z,101995.66
2022-10-19T03:34:07.097Z,101972.59
2022-10-19T03:39:23.325Z,101970.66
2022-10-19T03:44:35.230Z,101953.41
2022-10-19T03:49:45.923Z,101945.31
2022-10-19T03:54:54.701Z,101937.81
2022-10-19T03:59:57.929Z,101939.47
2022-10-19T04:05:05.843Z,101933.94
2022-10-19T04:10:19.678Z,101936.69
2022-10-19T04:15:22.953Z,101923.66
2022-10-19T04:20:27.131Z,101927.78
2022-10-19T04:25:31.663Z,101936.09
2022-10-19T04:30:37.700Z,101936.69
2022-10-19T04:35:46.370Z,101938.66
2022-10-19T04:41:02.214Z,101927.88
2022-10-19T04:46:23.711Z,101924.06
2022-10-19T04:51:31.890Z,101904.78
2022-10-19T05:02:01.078Z,101933.72
2022-10-19T05:07:06.784Z,101969.47
2022-10-19T05:12:14.288Z,101936.84
2022-10-19T05:17:20.960Z,101927.72
2022-10-19T05:22:26.884Z,101916.63
2022-10-19T05:27:32.360Z,101923.81
2022-10-19T05:32:42.742Z,101916.63
2022-10-19T05:37:49.383Z,101911.09
2022-10-19T05:42:55.018Z,101928.03
2022-10-19T05:47:59.104Z,101914.19
2022-10-19T05:53:05.489Z,101911.09
2022-10-19T05:58:12.236Z,101936.53
2022-10-19T06:03:17.980Z,101943.72
2022-10-19T06:08:26.143Z,101934.28
2022-10-19T06:13:32.616Z,101935.13
2022-10-19T06:18:43.105Z,101917.09
2022-10-19T06:23:56.990Z,101915.44
2022-10-19T06:29:07.639Z,101917.31
2022-10-19T06:34:22.519Z,101913.00
2022-10-19T06:39:41.001Z,101922.03
2022-10-19T06:44:50.378Z,101916.69
2022-10-19T06:50:02.822Z,101934.34
2022-10-19T06:55:08.280Z,101930.97
2022-10-19T07:00:12.760Z,101931.47
2022-10-19T07:05:18.418Z,101927.25
2022-10-19T07:10:27.670Z,101934.66
2022-10-19T07:15:33.192Z,101940.91
2022-10-19T07:20:49.040Z,101952.22
2022-10-19T07:26:12.589Z,101968.25
2022-10-19T07:31:30.023Z,101982.63
2022-10-19T07:36:42.387Z,101967.63
2022-10-19T07:42:04.674Z,101982.00
2022-10-19T07:47:14.784Z,101974.72
2022-10-19T07:52:20.606Z,101983.53
2022-10-19T07:57:35.483Z,101976.56
2022-10-19T08:02:54.711Z,101978.41
2022-10-19T08:08:05.042Z,101980.56
2022-10-19T08:13:17.318Z,101987.94
2022-10-19T08:18:26.394Z,101988.06
2022-10-19T08:23:30.525Z,102001.50
2022-10-19T08:28:45.985Z,102010.53
2022-10-19T08:34:32.818Z,101991.34
2022-10-19T08:39:46.238Z,101984.75
2022-10-19T08:45:28.055Z,101977.81
2022-10-19T08:50:48.014Z,101994.41
2022-10-19T08:56:51.128Z,101983.78
2022-10-19T09:02:34.981Z,101990.16
2022-10-19T09:07:48.369Z,102005.34
2022-10-19T09:13:08.011Z,101995.66
2022-10-19T09:18:25.863Z,101975.19
2022-10-19T09:24:11.141Z,101986.66
2022-10-19T09:29:32.236Z,101991.63
2022-10-19T09:46:09.517Z,101985.03
2022-10-19T09:51:42.718Z,101996.19
2022-10-19T10:02:35.708Z,101984.16
2022-10-19T10:08:00.151Z,101977.78
2022-10-19T10:13:22.878Z,101974.53
2022-10-19T10:18:38.456Z,101973.38
2022-10-19T10:24:22.030Z,101955.47
2022-10-19T10:29:37.712Z,101955.16
2022-10-19T10:34:56.895Z,101953.13
2022-10-19T10:40:10.158Z,101963.22
2022-10-19T10:50:54.526Z,101952.22
2022-10-19T10:56:04.369Z,101968.84
2022-10-19T11:01:27.784Z,101957.97
2022-10-19T11:06:54.571Z,101949.38
2022-10-19T11:12:10.628Z,101945.72
2022-10-19T11:17:41.436Z,101938.88
2022-10-19T11:23:54.064Z,101945.84
2022-10-19T11:29:38.665Z,101922.94
2022-10-19T11:35:27.110Z,101909.34
2022-10-19T11:41:13.098Z,101905.56
2022-10-19T11:46:58.439Z,101905.66
2022-10-19T11:52:40.118Z,101914.94
2022-10-19T11:58:25.454Z,101892.69
2022-10-19T12:04:05.302Z,101893.69
2022-10-19T12:10:07.918Z,101875.59
2022-10-19T12:15:41.820Z,101855.25
2022-10-19T12:20:55.533Z,101851.19
2022-10-19T12:26:11.757Z,101845.41
2022-10-19T12:31:22.542Z,101843.56
2022-10-19T12:36:52.588Z,101839.16
2022-10-19T12:42:48.919Z,101833.44
2022-10-19T12:48:20.769Z,101826.69
2022-10-19T12:53:49.405Z,101808.16
2022-10-19T12:59:02.895Z,101792.78
2022-10-19T13:04:25.382Z,101781.94
2022-10-19T13:09:45.973Z,101776.22
2022-10-19T13:14:56.168Z,101775.25
2022-10-19T13:20:34.218Z,101767.25
2022-10-19T13:25:42.577Z,101753.31
2022-10-19T13:31:04.967Z,101740.22
2022-10-19T13:36:19.254Z,101733.19
2022-10-19T13:41:33.357Z,101716.63
2022-10-19T13:47:20.034Z,101704.00
2022-10-19T13:59:20.354Z,101712.81
2022-10-19T14:05:30.895Z,101712.69
2022-10-19T14:11:00.225Z,101715.19
2022-10-19T14:16:35.795Z,101708.75
2022-10-19T14:21:49.786Z,101715.81
2022-10-19T14:26:56.812Z,101714.72
2022-10-19T14:32:02.811Z,101715.41
2022-10-19T14:37:47.638Z,101713.28
2022-10-19T14:42:51.152Z,101706.09
2022-10-19T14:48:12.005Z,101706.84
2022-10-19T14:54:17.004Z,101703.72
2022-10-19T14:59:55.451Z,101710.44
2022-10-19T15:05:12.247Z,101710.31
2022-10-19T15:10:53.398Z,101694.31
2022-10-19T15:16:11.044Z,101691.63
2022-10-19T15:21:38.376Z,101680.41
2022-10-19T15:26:47.817Z,101685.38
2022-10-19T15:32:00.041Z,101675.09
2022-10-19T15:42:37.842Z,101675.81
2022-10-19T15:48:12.672Z,101667.84
2022-10-19T15:53:25.228Z,101677.88
2022-10-19T15:58:37.006Z,101669.72
2022-10-19T16:03:44.346Z,101671.53
2022-10-19T16:08:57.407Z,101667.78
2022-10-19T16:14:05.334Z,101671.41
2022-10-19T16:19:16.774Z,101673.34
2022-10-19T16:24:26.647Z,101676.00
2022-10-19T16:29:33.163Z,101678.31
2022-10-19T16:40:11.163Z,101663.63
2022-10-19T16:45:31.358Z,101653.81
2022-10-19T16:50:47.959Z,101668.22
2022-10-19T16:55:55.568Z,101659.88
2022-10-19T17:01:01.755Z,101665.78
2022-10-19T17:06:14.630Z,101663.31
2022-10-19T17:11:27.748Z,101672.00
2022-10-19T17:17:12.402Z,101676.25
2022-10-19T17:22:20.979Z,101674.94
2022-10-19T17:27:30.317Z,101671.66
2022-10-19T17:32:46.459Z,101671.16
2022-10-19T17:37:57.386Z,101670.16
2022-10-19T17:43:20.166Z,101671.31
2022-10-19T17:48:29.457Z,101680.78
2022-10-19T17:53:38.322Z,101681.94
2022-10-19T17:58:47.585Z,101666.41
2022-10-19T18:03:58.034Z,101668.69
2022-10-19T18:09:07.180Z,101667.06
2022-10-19T18:14:18.785Z,101662.13
2022-10-19T18:19:25.721Z,101668.34
2022-10-19T18:24:31.900Z,101666.22
2022-10-19T18:29:40.463Z,101675.34
2022-10-19T18:34:47.451Z,101680.09
2022-10-19T18:39:52.690Z,101668.16
2022-10-19T18:45:00.667Z,101669.63
2022-10-19T18:55:29.951Z,101666.03
2022-10-19T19:00:46.063Z,101665.22
2022-10-19T19:05:52.155Z,101669.47
2022-10-19T19:10:58.613Z,101657.38
2022-10-19T19:16:04.603Z,101650.19
2022-10-19T19:21:20.096Z,101659.34
2022-10-19T19:26:27.925Z,101651.66
2022-10-19T19:31:42.268Z,101648.38
2022-10-19T19:36:49.266Z,101646.75
2022-10-19T19:42:02.164Z,101646.75
2022-10-19T19:47:17.346Z,101639.56
2022-10-19T19:52:39.418Z,101654.59
2022-10-19T19:57:54.538Z,101650.50
2022-10-19T20:08:21.190Z,101657.53
2022-10-19T20:13:26.027Z,101656.22
2022-10-19T20:18:35.993Z,101664.38
2022-10-19T20:23:39.900Z,101642.81
2022-10-19T20:28:49.432Z,101626.00
2022-10-19T20:33:55.368Z,101621.09
2022-10-19T20:39:02.995Z,101617.00
2022-10-19T20:44:10.310Z,101637.09
2022-10-19T20:49:20.564Z,101643.78
2022-10-19T20:54:34.466Z,101634.13
2022-10-19T20:59:42.462Z,101629.53
2022-10-19T21:04:45.964Z,101633.75
2022-10-19T21:09:50.360Z,101642.41
2022-10-19T21:15:01.213Z,101628.84
2022-10-19T21:20:13.310Z,101617.91
2022-10-19T21:25:17.730Z,101627.69
2022-10-19T21:30:23.247Z,101621.97
2022-10-19T21:35:29.895Z,101628.81
2022-10-19T21:40:37.626Z,101620.50
2022-10-19T21:45:56.914Z,101621.91
2022-10-19T21:51:30.620Z,101613.75
2022-10-19T21:56:36.787Z,101621.06
2022-10-19T22:01:51.388Z,101625.31
2022-10-19T22:07:00.858Z,101606.53
2022-10-19T22:12:10.125Z,101605.22
2022-10-19T22:17:20.648Z,101602.28
2022-10-19T22:22:30.492Z,101594.25
2022-10-19T22:27:37.386Z,101581.53
2022-10-19T22:32:40.293Z,101589.38
2022-10-19T22:37:49.156Z,101582.19
2022-10-19T22:42:57.841Z,101583.81
2022-10-19T22:48:05.806Z,101591.81
2022-10-19T22:53:08.690Z,101590.19
2022-10-19T22:58:19.345Z,101597.38
2022-10-19T23:03:22.467Z,101607.47
2022-10-19T23:08:30.024Z,101603.69
2022-10-19T23:13:39.094Z,101607.75
2022-10-19T23:18:47.588Z,101618.78
2022-10-19T23:23:58.498Z,101636.34
2022-10-19T23:29:09.555Z,101645.63
2022-10-19T23:39:35.110Z,101646.75
2022-10-19T23:44:40.189Z,101635.16
2022-10-19T23:49:49.445Z,101631.25
2022-10-19T23:55:09.781Z,101619.53
